Time;durP1;ratioP1;P1;durP2;ratioP2;P2;SDS_P1;SDS_P2;PMS_P1;PMS_P2;Temp;Humidity;BMP_temperature;BMP_pressure;BME280_temperature;BME280_humidity;BME280_pressure;Samples;Min_cycle;Max_cycle;Signal;HPM_P1;HPM_P2
2022/06/13 00:01:59;;;;;;;3.95;1.90;;;20.90;49.40;;;;;;4937619;29;20031;-81
2022/06/13 00:04:24;;;;;;;2.85;1.60;;;20.90;49.50;;;;;;4936347;29;20495;-81
2022/06/13 00:06:50;;;;;;;2.05;1.38;;;20.90;49.60;;;;;;4920621;29;20062;-82
2022/06/13 00:09:16;;;;;;;2.33;1.50;;;20.80;49.50;;;;;;4953209;29;20087;-81
2022/06/13 00:11:42;;;;;;;1.95;1.60;;;20.80;49.70;;;;;;4938141;29;20544;-80
2022/06/13 00:14:07;;;;;;;2.70;1.45;;;20.70;49.70;;;;;;4952406;29;20063;-81
2022/06/13 00:16:33;;;;;;;2.10;1.42;;;20.70;49.80;;;;;;4920371;29;20024;-81
2022/06/13 00:18:59;;;;;;;2.55;1.65;;;20.70;49.80;;;;;;4936930;29;20032;-80
2022/06/13 00:21:28;;;;;;;2.88;1.67;;;20.70;49.90;;;;;;4921111;29;20406;-81
2022/06/13 00:23:54;;;;;;;3.10;1.70;;;20.60;49.90;;;;;;4936098;29;20031;-80
2022/06/13 00:26:23;;;;;;;3.08;1.75;;;20.60;50.00;;;;;;4937350;29;20032;-80
2022/06/13 00:28:50;;;;;;;2.85;1.83;;;20.60;50.10;;;;;;4936873;29;20039;-80
2022/06/13 00:31:16;;;;;;;2.00;1.42;;;20.50;50.00;;;;;;4920144;29;20059;-81
2022/06/13 00:33:42;;;;;;;3.28;1.70;;;20.50;50.10;;;;;;4952681;29;20031;-81
2022/06/13 00:36:08;;;;;;;2.35;1.67;;;20.40;50.00;;;;;;4953391;29;20372;-80
2022/06/13 00:38:36;;;;;;;2.72;1.83;;;20.40;50.10;;;;;;4938802;29;20023;-80
2022/06/13 00:41:07;;;;;;;5.28;2.00;;;20.40;50.20;;;;;;4938491;29;20020;-80
2022/06/13 00:43:34;;;;;;;4.38;2.00;;;20.40;50.30;;;;;;4940527;29;20070;-81
2022/06/13 00:46:00;;;;;;;3.10;1.63;;;20.30;50.30;;;;;;4940916;29;20031;-80
2022/06/13 00:48:29;;;;;;;3.17;1.80;;;20.30;50.30;;;;;;4942268;29;20472;-80
2022/06/13 00:50:59;;;;;;;3.13;1.73;;;20.30;50.40;;;;;;4959863;29;20058;-80
2022/06/13 00:53:30;;;;;;;3.85;1.80;;;20.20;50.40;;;;;;4944362;29;20031;-80
2022/06/13 00:56:21;;;;;;;2.85;1.58;;;20.20;50.40;;;;;;4943325;29;20032;-80
2022/06/13 00:58:55;;;;;;;3.30;2.00;;;20.20;50.50;;;;;;4942152;29;20027;-81
2022/06/13 01:01:22;;;;;;;3.10;1.90;;;20.10;50.50;;;;;;4939096;29;20038;-80
2022/06/13 01:03:50;;;;;;;3.65;1.90;;;20.10;50.50;;;;;;4937346;29;20054;-81
2022/06/13 01:06:17;;;;;;;3.05;1.55;;;20.10;50.50;;;;;;4937244;29;20035;-81
2022/06/13 01:08:43;;;;;;;3.20;1.65;;;20.10;50.60;;;;;;4940055;29;20372;-80
2022/06/13 01:11:18;;;;;;;3.70;1.90;;;20.00;50.60;;;;;;4942499;29;20099;-80
2022/06/13 01:13:49;;;;;;;4.43;1.95;;;20.00;50.70;;;;;;4939811;29;20138;-80
2022/06/13 01:16:33;;;;;;;2.15;1.45;;;19.90;50.70;;;;;;4953107;29;20094;-80
2022/06/13 01:19:20;;;;;;;2.88;1.73;;;19.90;50.90;;;;;;4952421;29;20030;-80
2022/06/13 01:22:07;;;;;;;3.13;1.67;;;19.90;50.90;;;;;;4952302;29;20441;-80
2022/06/13 01:24:45;;;;;;;3.13;1.80;;;19.80;51.00;;;;;;4951565;29;20083;-80
2022/06/13 01:27:33;;;;;;;3.17;2.00;;;19.80;51.00;;;;;;4951013;29;20380;-81
2022/06/13 01:30:19;;;;;;;2.53;1.60;;;19.80;51.10;;;;;;4952128;29;20369;-81
2022/06/13 01:33:14;;;;;;;2.80;1.70;;;19.80;51.10;;;;;;4935978;29;20503;-81
2022/06/13 01:35:58;;;;;;;2.58;1.83;;;19.70;51.10;;;;;;4914214;29;20032;-80
2022/06/13 01:39:02;;;;;;;2.47;1.58;;;19.70;51.10;;;;;;4935843;29;20166;-81
2022/06/13 01:42:15;;;;;;;2.60;1.80;;;19.70;51.20;;;;;;4890766;29;20039;-80
2022/06/13 01:45:05;;;;;;;3.25;1.88;;;19.60;51.20;;;;;;4884125;29;20043;-80
2022/06/13 01:47:54;;;;;;;2.40;1.77;;;19.60;51.30;;;;;;4935926;29;20135;-80
2022/06/13 01:50:24;;;;;;;2.83;1.65;;;19.50;51.40;;;;;;4939233;29;20081;-81
2022/06/13 01:52:56;;;;;;;2.33;1.80;;;19.50;51.30;;;;;;4955927;29;20082;-81
2022/06/13 01:55:28;;;;;;;3.65;1.80;;;19.50;51.50;;;;;;4955354;29;20066;-81
2022/06/13 01:58:07;;;;;;;2.65;1.73;;;19.50;51.50;;;;;;4954460;29;20034;-81
2022/06/13 02:00:34;;;;;;;3.42;1.90;;;19.50;51.70;;;;;;4954798;29;20038;-81
2022/06/13 02:03:26;;;;;;;2.45;1.50;;;19.40;51.60;;;;;;4954728;28;20465;-81
2022/06/13 02:06:09;;;;;;;2.97;1.70;;;19.40;51.80;;;;;;4940180;29;20031;-81
2022/06/13 02:08:44;;;;;;;2.30;1.63;;;19.40;51.80;;;;;;4954547;29;20477;-80
2022/06/13 02:11:24;;;;;;;2.55;1.73;;;19.30;51.80;;;;;;4955024;29;20027;-81
2022/06/13 02:14:12;;;;;;;2.75;1.75;;;19.30;51.90;;;;;;4938632;29;20032;-81
2022/06/13 02:16:47;;;;;;;3.17;1.80;;;19.30;51.90;;;;;;4908996;29;20381;-80
2022/06/13 02:19:23;;;;;;;;;;;19.30;52.00;;;;;;4940067;29;20032;-81
2022/06/13 02:21:58;;;;;;;2.67;1.60;;;19.30;51.90;;;;;;4939124;29;20428;-81
2022/06/13 02:24:46;;;;;;;3.17;1.52;;;19.20;52.00;;;;;;4938075;29;20176;-80
2022/06/13 02:27:15;;;;;;;2.47;1.67;;;19.20;52.20;;;;;;4939235;29;20453;-80
2022/06/13 02:29:48;;;;;;;3.05;2.00;;;19.20;52.20;;;;;;4939035;29;20027;-80
2022/06/13 02:32:18;;;;;;;3.22;2.00;;;19.20;52.30;;;;;;4938815;29;20097;-80
2022/06/13 02:34:52;;;;;;;3.53;1.90;;;19.20;52.40;;;;;;4939165;29;20023;-80
2022/06/13 02:37:33;;;;;;;2.47;1.52;;;19.20;52.40;;;;;;4937849;29;20024;-79
2022/06/13 02:40:06;;;;;;;2.20;1.60;;;19.20;52.40;;;;;;4939962;29;20098;-80
2022/06/13 02:42:42;;;;;;;3.03;1.73;;;19.10;52.40;;;;;;4939218;29;20038;-79
2022/06/13 02:45:19;;;;;;;3.80;1.90;;;19.20;52.50;;;;;;4939410;29;20032;-79
2022/06/13 02:48:07;;;;;;;4.45;2.00;;;19.10;52.50;;;;;;4937843;29;20035;-81
2022/06/13 02:51:05;;;;;;;2.65;1.70;;;19.10;52.70;;;;;;4953509;29;20166;-80
2022/06/13 02:53:40;;;;;;;3.35;1.55;;;19.10;52.70;;;;;;4954015;29;20046;-80
2022/06/13 02:56:18;;;;;;;2.50;1.83;;;19.00;52.70;;;;;;4953804;29;20023;-80
2022/06/13 02:59:05;;;;;;;2.42;1.73;;;19.10;52.80;;;;;;4937868;29;20118;-80
2022/06/13 03:01:45;;;;;;;2.63;1.60;;;19.00;52.70;;;;;;4939456;29;20020;-80
2022/06/13 03:04:33;;;;;;;4.05;1.98;;;19.00;52.90;;;;;;4937773;29;20035;-80
2022/06/13 03:07:24;;;;;;;3.63;2.25;;;19.00;52.90;;;;;;4938707;29;20110;-80
2022/06/13 03:10:06;;;;;;;3.78;1.85;;;19.00;53.00;;;;;;4953375;28;20110;-80
2022/06/13 03:12:41;;;;;;;3.42;1.80;;;19.00;53.00;;;;;;4954519;29;20035;-80
2022/06/13 03:15:12;;;;;;;;;;;19.00;53.00;;;;;;4937695;29;20038;-81
2022/06/13 03:17:43;;;;;;;2.58;1.60;;;19.00;52.90;;;;;;4953759;29;20236;-80
2022/06/13 03:20:24;;;;;;;2.45;1.75;;;18.90;52.90;;;;;;4953990;29;20024;-80
2022/06/13 03:23:12;;;;;;;3.10;1.90;;;18.90;53.10;;;;;;4938204;29;20051;-80
2022/06/13 03:26:07;;;;;;;2.90;1.83;;;18.90;53.20;;;;;;4953190;29;20027;-80
2022/06/13 03:28:37;;;;;;;2.33;1.70;;;18.90;53.20;;;;;;4936612;29;20042;-80
2022/06/13 03:31:08;;;;;;;2.80;1.95;;;18.90;53.20;;;;;;4939154;29;20036;-79
2022/06/13 03:33:40;;;;;;;2.72;1.80;;;18.80;53.20;;;;;;4954857;29;20035;-80
2022/06/13 03:36:23;;;;;;;3.20;1.88;;;18.80;53.30;;;;;;4938677;29;20040;-80
2022/06/13 03:39:00;;;;;;;4.25;2.10;;;18.80;53.40;;;;;;4954747;29;20058;-79
2022/06/13 03:41:33;;;;;;;3.35;1.85;;;18.80;53.40;;;;;;4939638;29;20349;-80
2022/06/13 03:44:29;;;;;;;3.50;2.00;;;18.80;53.40;;;;;;4952995;29;20040;-80
2022/06/13 03:47:18;;;;;;;3.72;2.25;;;18.80;53.50;;;;;;4908229;29;20036;-80
2022/06/13 03:50:04;;;;;;;3.00;1.70;;;18.80;53.60;;;;;;4937781;29;20032;-80
2022/06/13 03:52:34;;;;;;;3.97;2.17;;;18.80;53.50;;;;;;4936307;29;20090;-80
2022/06/13 03:55:12;;;;;;;2.65;1.70;;;18.80;53.60;;;;;;4952512;28;20585;-80
2022/06/13 03:57:50;;;;;;;2.65;1.95;;;18.70;53.70;;;;;;4936950;29;20032;-80
2022/06/13 04:00:22;;;;;;;3.70;2.20;;;18.70;53.80;;;;;;4937717;29;20330;-80
2022/06/13 04:02:52;;;;;;;4.00;2.30;;;18.70;53.70;;;;;;4937526;28;20033;-80
2022/06/13 04:05:21;;;;;;;3.10;1.77;;;18.70;53.80;;;;;;4953252;29;20031;-79
2022/06/13 04:07:47;;;;;;;2.90;2.08;;;18.70;53.90;;;;;;4953775;29;20509;-80
2022/06/13 04:10:15;;;;;;;3.85;2.10;;;18.70;53.90;;;;;;4952462;29;20165;-80
2022/06/13 04:13:13;;;;;;;4.15;2.20;;;18.70;53.90;;;;;;4938107;29;20039;-80
2022/06/13 04:15:58;;;;;;;2.65;1.70;;;18.70;54.00;;;;;;4935516;29;20034;-80
2022/06/13 04:18:56;;;;;;;3.22;2.10;;;18.60;54.00;;;;;;4937168;29;20031;-80
2022/06/13 04:21:35;;;;;;;2.38;1.88;;;18.60;54.10;;;;;;4937313;29;20464;-81
2022/06/13 04:24:08;;;;;;;3.70;1.80;;;18.60;54.00;;;;;;4936034;29;20437;-80
2022/06/13 04:26:40;;;;;;;2.42;1.88;;;18.60;54.10;;;;;;4936362;29;20032;-80
2022/06/13 04:29:35;;;;;;;4.78;2.50;;;18.60;54.20;;;;;;4937813;29;20063;-80
2022/06/13 04:32:09;;;;;;;2.85;1.95;;;18.60;54.20;;;;;;4937204;29;20060;-80
2022/06/13 04:34:51;;;;;;;3.58;2.20;;;18.60;54.10;;;;;;4937579;29;20115;-80
2022/06/13 04:37:21;;;;;;;2.88;2.03;;;18.50;54.20;;;;;;4936882;29;20036;-80
2022/06/13 04:39:50;;;;;;;4.07;2.05;;;18.50;54.20;;;;;;4935989;29;20031;-80
2022/06/13 04:42:18;;;;;;;3.10;2.05;;;18.50;54.20;;;;;;4935870;29;20043;-80
2022/06/13 04:44:45;;;;;;;2.70;1.95;;;18.60;54.30;;;;;;4936529;29;20480;-80
2022/06/13 04:47:15;;;;;;;4.85;2.33;;;18.50;54.30;;;;;;4936518;29;20079;-79
2022/06/13 04:49:47;;;;;;;3.88;2.40;;;18.50;54.30;;;;;;4936619;29;20071;-79
2022/06/13 04:52:17;;;;;;;3.72;2.08;;;18.50;54.40;;;;;;4935691;29;20055;-79
2022/06/13 04:54:51;;;;;;;4.78;2.20;;;18.50;54.40;;;;;;4935176;29;20039;-79
2022/06/13 04:57:18;;;;;;;2.80;1.95;;;18.50;54.50;;;;;;4919856;29;20032;-79
2022/06/13 04:59:45;;;;;;;2.72;1.92;;;18.50;54.40;;;;;;4936967;29;20050;-79
2022/06/13 05:02:20;;;;;;;3.05;2.10;;;18.50;54.50;;;;;;4952029;29;20086;-79
2022/06/13 05:04:46;;;;;;;2.45;2.00;;;18.50;54.60;;;;;;4935259;29;20044;-79
2022/06/13 05:07:15;;;;;;;3.70;2.00;;;18.60;54.60;;;;;;4936979;29;20028;-80
2022/06/13 05:09:52;;;;;;;3.55;2.30;;;18.50;54.50;;;;;;4935632;29;20028;-78
2022/06/13 05:12:37;;;;;;;3.10;1.85;;;18.50;54.60;;;;;;4940032;29;20105;-78
2022/06/13 05:15:20;;;;;;;4.72;2.38;;;18.50;54.70;;;;;;4940916;29;20047;-78
2022/06/13 05:18:16;;;;;;;4.05;2.28;;;18.50;54.70;;;;;;4944652;29;20028;-80
2022/06/13 05:21:21;;;;;;;2.50;2.00;;;18.50;54.70;;;;;;4940666;29;20027;-79
2022/06/13 05:24:12;;;;;;;3.08;2.10;;;18.50;54.60;;;;;;4883498;29;20045;-78
2022/06/13 05:26:38;;;;;;;2.85;2.00;;;18.50;54.80;;;;;;4897028;29;20105;-79
2022/06/13 05:29:04;;;;;;;4.28;2.30;;;18.50;54.70;;;;;;4898881;29;20070;-78
2022/06/13 05:31:30;;;;;;;3.72;2.20;;;18.50;54.80;;;;;;4936200;29;20130;-79
2022/06/13 05:33:58;;;;;;;3.92;2.38;;;18.50;54.90;;;;;;4950755;29;20034;-78
2022/06/13 05:36:26;;;;;;;3.20;2.10;;;18.50;54.90;;;;;;4934913;29;20527;-80
2022/06/13 05:38:54;;;;;;;3.80;2.38;;;18.50;55.00;;;;;;4936031;28;20012;-80
2022/06/13 05:41:19;;;;;;;3.55;2.20;;;18.50;55.00;;;;;;4936187;29;20509;-79
2022/06/13 05:43:45;;;;;;;4.40;2.63;;;18.50;55.10;;;;;;4950869;28;20076;-79
2022/06/13 05:46:18;;;;;;;3.17;2.42;;;18.50;55.20;;;;;;4935176;29;20038;-79
2022/06/13 05:48:43;;;;;;;4.05;2.35;;;18.50;55.20;;;;;;4936859;29;20048;-79
2022/06/13 05:51:09;;;;;;;4.18;2.38;;;18.60;55.30;;;;;;4934399;29;20060;-79
2022/06/13 05:53:35;;;;;;;4.28;2.42;;;18.60;55.30;;;;;;4918655;29;20379;-80
2022/06/13 05:56:02;;;;;;;3.85;2.17;;;18.60;55.30;;;;;;4934335;29;20468;-79
2022/06/13 05:58:28;;;;;;;3.47;2.25;;;18.60;55.30;;;;;;4902987;29;20032;-79
2022/06/13 06:01:01;;;;;;;4.35;2.53;;;18.60;55.40;;;;;;4918677;29;20032;-78
2022/06/13 06:03:27;;;;;;;2.63;2.03;;;18.60;55.50;;;;;;4936279;29;20036;-78
2022/06/13 06:05:54;;;;;;;3.97;2.10;;;18.70;55.50;;;;;;4934303;29;20127;-79
2022/06/13 06:08:23;;;;;;;2.88;2.00;;;18.70;55.50;;;;;;4935810;29;20040;-80
2022/06/13 06:10:52;;;;;;;3.95;2.30;;;18.70;55.50;;;;;;4934348;29;20059;-79
2022/06/13 06:13:18;;;;;;;3.38;2.22;;;18.70;55.50;;;;;;4934346;29;20130;-79
2022/06/13 06:15:46;;;;;;;2.88;2.10;;;18.70;55.40;;;;;;4935672;29;20103;-79
2022/06/13 06:18:14;;;;;;;3.58;1.90;;;18.80;55.50;;;;;;4934829;29;20043;-78
2022/06/13 06:20:40;;;;;;;4.07;2.45;;;18.80;55.50;;;;;;4934671;29;20193;-79
2022/06/13 06:23:07;;;;;;;3.38;2.25;;;18.80;55.50;;;;;;4936857;29;20131;-78
2022/06/13 06:25:34;;;;;;;3.20;2.17;;;18.80;55.50;;;;;;4938116;29;20051;-79
2022/06/13 06:28:01;;;;;;;3.72;2.00;;;18.80;55.50;;;;;;4939720;29;20059;-78
2022/06/13 06:30:27;;;;;;;3.45;2.10;;;18.80;55.50;;;;;;4938891;29;20024;-79
2022/06/13 06:32:57;;;;;;;4.95;2.17;;;18.90;55.60;;;;;;4938422;29;20086;-77
2022/06/13 06:35:28;;;;;;;2.83;1.92;;;18.90;55.60;;;;;;4938172;29;20036;-78
2022/06/13 06:37:55;;;;;;;3.65;2.08;;;18.90;55.60;;;;;;4939178;29;20126;-79
2022/06/13 06:40:24;;;;;;;3.88;2.17;;;19.00;55.60;;;;;;4953720;29;20425;-80
2022/06/13 06:42:50;;;;;;;4.45;2.03;;;19.00;55.70;;;;;;4940080;29;20027;-80
2022/06/13 06:45:17;;;;;;;2.22;1.60;;;19.00;55.60;;;;;;4938796;29;20044;-78
2022/06/13 06:47:43;;;;;;;3.03;1.75;;;19.10;55.70;;;;;;4938361;29;20146;-80
2022/06/13 06:50:21;;;;;;;2.97;1.85;;;19.10;55.60;;;;;;4937495;29;20039;-79
2022/06/13 06:52:47;;;;;;;2.58;1.77;;;19.10;55.70;;;;;;4939545;28;20047;-80
2022/06/13 07:00:50;;;;;;;3.42;1.73;;;19.20;55.50;;;;;;4941076;29;20035;-81
2022/06/13 07:03:17;;;;;;;3.00;1.73;;;19.20;55.50;;;;;;4937772;29;20434;-77
2022/06/13 07:05:45;;;;;;;4.22;1.92;;;19.30;55.50;;;;;;4939178;29;20027;-78
2022/06/13 07:08:11;;;;;;;2.83;1.92;;;19.30;56.10;;;;;;4938576;29;20156;-78
2022/06/13 07:10:37;;;;;;;3.00;1.45;;;19.30;55.40;;;;;;4953296;29;20473;-76
2022/06/13 07:13:03;;;;;;;3.03;1.85;;;19.40;55.40;;;;;;4936934;29;20030;-77
2022/06/13 07:15:29;;;;;;;3.00;1.77;;;19.40;55.30;;;;;;4938540;29;20130;-76
2022/06/13 07:17:55;;;;;;;2.67;1.63;;;19.40;55.30;;;;;;4904980;29;20035;-75
2022/06/13 07:20:21;;;;;;;2.78;1.65;;;19.50;55.20;;;;;;4936389;29;20031;-77
2022/06/13 07:22:51;;;;;;;3.40;1.85;;;19.50;55.20;;;;;;4952532;29;20080;-76
2022/06/13 07:25:23;;;;;;;3.25;1.50;;;19.60;55.20;;;;;;4921646;29;20073;-76
2022/06/13 07:27:49;;;;;;;2.65;1.40;;;19.60;55.10;;;;;;4938071;29;20024;-76
2022/06/13 07:30:16;;;;;;;3.22;1.45;;;19.70;55.10;;;;;;4937942;28;20379;-76
2022/06/13 07:32:43;;;;;;;2.40;1.60;;;19.70;55.10;;;;;;4937624;29;20043;-76
2022/06/13 07:35:10;;;;;;;2.05;1.45;;;19.70;55.00;;;;;;4937173;29;20023;-76
2022/06/13 07:40:23;;;;;;;3.25;1.60;;;19.80;54.90;;;;;;4952251;29;20194;-76
2022/06/13 07:42:53;;;;;;;2.72;1.60;;;19.90;54.80;;;;;;4920204;29;20063;-76
2022/06/13 07:45:25;;;;;;;3.20;1.60;;;19.90;54.80;;;;;;4951687;28;20036;-76
2022/06/13 07:47:52;;;;;;;2.97;1.27;;;20.00;54.80;;;;;;4936138;29;20031;-76
2022/06/13 07:50:20;;;;;;;2.38;1.60;;;20.00;54.70;;;;;;4936322;29;20338;-76
2022/06/13 07:52:47;;;;;;;2.63;1.60;;;20.00;54.70;;;;;;4936172;29;20064;-77
2022/06/13 07:55:13;;;;;;;2.58;1.50;;;20.10;54.60;;;;;;4937454;28;20028;-77
2022/06/13 07:57:39;;;;;;;2.40;1.58;;;20.20;54.60;;;;;;4936949;29;20473;-76
2022/06/13 08:00:08;;;;;;;2.13;1.40;;;20.20;54.50;;;;;;4936085;29;20039;-77
2022/06/13 08:02:36;;;;;;;2.33;1.27;;;20.20;54.50;;;;;;4935601;29;20031;-77
2022/06/13 08:05:03;;;;;;;2.47;1.55;;;20.30;54.40;;;;;;4935628;29;20039;-76
2022/06/13 08:07:29;;;;;;;2.50;1.38;;;20.30;54.30;;;;;;4920277;29;20080;-76
2022/06/13 08:09:55;;;;;;;2.22;1.50;;;20.40;54.30;;;;;;4936642;29;20016;-76
2022/06/13 08:12:21;;;;;;;2.03;1.45;;;20.40;54.30;;;;;;4936958;29;20035;-77
2022/06/13 08:14:48;;;;;;;2.33;1.50;;;20.50;54.30;;;;;;4920383;29;20032;-76
2022/06/13 08:17:16;;;;;;;1.77;1.23;;;20.60;54.20;;;;;;4936998;29;20453;-76
2022/06/13 08:19:42;;;;;;;1.67;1.05;;;20.60;54.10;;;;;;4951257;28;20118;-76
2022/06/13 08:22:08;;;;;;;1.30;0.95;;;20.70;54.00;;;;;;4935351;29;20065;-76
2022/06/13 08:24:34;;;;;;;1.77;1.00;;;20.70;53.90;;;;;;4936786;28;20031;-77
2022/06/13 08:27:00;;;;;;;1.75;1.10;;;20.80;53.80;;;;;;4951491;29;20063;-78
2022/06/13 08:29:25;;;;;;;1.75;1.27;;;20.80;53.70;;;;;;4936617;29;20026;-77
2022/06/13 08:31:52;;;;;;;1.95;1.17;;;20.90;53.70;;;;;;4936436;29;20043;-77
2022/06/13 08:34:17;;;;;;;2.17;1.10;;;21.00;53.60;;;;;;4936393;29;20123;-82
2022/06/13 08:36:43;;;;;;;1.23;0.80;;;21.00;53.50;;;;;;4935313;29;20481;-78
2022/06/13 08:39:09;;;;;;;2.22;1.13;;;21.10;53.50;;;;;;4935987;29;20039;-78
2022/06/13 08:41:57;;;;;;;1.00;0.90;;;21.20;53.50;;;;;;4951034;29;20358;-78
2022/06/13 08:44:34;;;;;;;2.28;1.25;;;21.20;53.40;;;;;;4936106;29;20051;-77
2022/06/13 08:47:15;;;;;;;1.77;1.08;;;21.20;53.20;;;;;;4935280;29;20177;-77
2022/06/13 08:50:10;;;;;;;1.80;1.00;;;21.30;53.30;;;;;;4935884;29;20031;-78
2022/06/13 08:52:54;;;;;;;2.72;1.33;;;21.40;53.20;;;;;;4934960;29;20082;-78
2022/06/13 08:55:48;;;;;;;2.13;0.90;;;21.40;53.10;;;;;;4936237;29;20028;-80
2022/06/13 08:58:33;;;;;;;0.80;0.80;;;21.50;53.00;;;;;;4936447;29;20085;-77
2022/06/13 09:01:01;;;;;;;1.15;0.95;;;21.60;52.90;;;;;;4935960;28;20027;-78
2022/06/13 09:04:00;;;;;;;2.22;0.90;;;21.60;52.80;;;;;;4918921;29;20118;-79
2022/06/13 09:06:45;;;;;;;1.77;1.00;;;21.70;52.90;;;;;;4951432;29;20089;-76
2022/06/13 09:09:36;;;;;;;1.95;0.90;;;21.70;52.70;;;;;;4935265;29;20406;-79
2022/06/13 09:12:13;;;;;;;1.55;0.90;;;21.80;52.90;;;;;;4935813;29;20126;-78
2022/06/13 09:15:03;;;;;;;0.80;0.80;;;21.90;52.70;;;;;;4952117;29;20054;-77
2022/06/13 09:18:01;;;;;;;1.15;0.90;;;21.90;52.70;;;;;;4937349;29;20062;-78
2022/06/13 09:21:07;;;;;;;1.85;0.95;;;22.10;52.70;;;;;;4935943;29;20031;-77
2022/06/13 09:23:54;;;;;;;1.75;0.90;;;22.10;52.50;;;;;;4921555;29;20047;-79
2022/06/13 09:26:33;;;;;;;1.02;0.75;;;22.20;52.50;;;;;;4937067;29;20039;-79
2022/06/13 09:29:11;;;;;;;2.25;0.90;;;22.20;52.40;;;;;;4953141;29;20083;-78
2022/06/13 09:31:41;;;;;;;1.83;0.82;;;22.30;52.30;;;;;;4936404;29;20114;-78
2022/06/13 09:34:19;;;;;;;1.65;0.90;;;22.40;52.20;;;;;;4937304;29;20052;-82
2022/06/13 09:37:07;;;;;;;1.75;0.82;;;22.50;52.30;;;;;;4956510;29;20038;-78
2022/06/13 09:39:33;;;;;;;1.40;0.88;;;22.50;52.10;;;;;;4940202;29;20032;-78
2022/06/13 09:42:02;;;;;;;2.10;0.80;;;22.60;52.00;;;;;;4924323;29;20091;-78
2022/06/13 09:44:40;;;;;;;0.95;0.80;;;22.70;52.00;;;;;;4955312;29;20036;-78
2022/06/13 09:47:46;;;;;;;2.28;1.00;;;22.70;51.90;;;;;;4939639;29;20063;-78
2022/06/13 09:50:36;;;;;;;0.73;0.70;;;22.80;51.90;;;;;;4881714;29;20040;-78
2022/06/13 09:53:11;;;;;;;1.58;0.85;;;22.90;51.90;;;;;;4951093;29;20042;-78
2022/06/13 09:56:05;;;;;;;1.35;0.98;;;22.90;51.70;;;;;;4936264;29;20034;-78
2022/06/13 09:58:52;;;;;;;2.92;0.90;;;23.00;51.70;;;;;;4936399;29;20030;-79
2022/06/13 10:01:23;;;;;;;1.10;0.75;;;23.10;51.60;;;;;;4951306;28;20028;-78
2022/06/13 10:04:03;;;;;;;1.55;0.80;;;23.20;51.50;;;;;;4939642;29;20429;-81
2022/06/13 10:06:54;;;;;;;1.45;0.70;;;23.20;51.50;;;;;;4954179;29;20047;-78
2022/06/13 10:09:37;;;;;;;1.08;0.82;;;23.30;51.50;;;;;;4938290;29;20408;-78
2022/06/13 10:12:22;;;;;;;1.67;0.93;;;23.30;51.30;;;;;;4953663;29;20027;-79
2022/06/13 10:15:26;;;;;;;1.35;0.88;;;23.40;51.30;;;;;;4939169;29;20520;-79
2022/06/13 10:18:21;;;;;;;1.67;0.70;;;23.40;51.20;;;;;;4918387;29;20067;-78
2022/06/13 10:21:07;;;;;;;1.42;0.73;;;23.50;51.10;;;;;;4922060;29;20034;-79
2022/06/13 10:23:58;;;;;;;1.20;0.63;;;23.60;51.00;;;;;;4939047;29;20035;-80
2022/06/13 10:26:38;;;;;;;1.50;0.80;;;23.60;51.00;;;;;;4953412;29;20039;-81
2022/06/13 10:29:16;;;;;;;1.35;0.70;;;23.70;51.00;;;;;;4953821;29;20027;-78
2022/06/13 10:32:00;;;;;;;1.83;0.73;;;23.60;50.90;;;;;;4937333;29;20027;-79
2022/06/13 10:35:08;;;;;;;1.42;0.70;;;23.70;51.00;;;;;;4938974;29;20047;-79
2022/06/13 10:37:44;;;;;;;1.35;0.88;;;23.70;50.90;;;;;;4953426;29;20091;-79
2022/06/13 10:40:10;;;;;;;1.85;0.70;;;23.80;50.80;;;;;;4938542;29;20031;-78
2022/06/13 10:42:38;;;;;;;1.50;0.98;;;23.80;50.80;;;;;;4939026;29;20031;-79
2022/06/13 10:45:10;;;;;;;2.17;0.80;;;23.80;50.90;;;;;;4938466;29;20036;-79
2022/06/13 10:48:20;;;;;;;1.45;0.70;;;23.80;50.80;;;;;;4937201;29;20091;-78
2022/06/13 10:50:54;;;;;;;1.35;0.75;;;23.80;50.80;;;;;;4938297;28;20467;-79
2022/06/13 10:53:47;;;;;;;1.50;0.70;;;23.90;50.70;;;;;;4953792;29;20028;-79
2022/06/13 10:56:21;;;;;;;1.40;0.70;;;24.00;50.80;;;;;;4938323;29;20107;-79
2022/06/13 10:58:49;;;;;;;0.88;0.70;;;24.00;50.70;;;;;;4936847;29;20020;-79
2022/06/13 11:01:18;;;;;;;1.40;0.80;;;24.00;50.60;;;;;;4937953;29;20099;-80
2022/06/13 11:04:16;;;;;;;1.45;0.80;;;24.00;50.60;;;;;;4952917;29;20457;-78
2022/06/13 11:06:53;;;;;;;1.17;0.70;;;24.00;50.70;;;;;;4937021;29;20082;-79
2022/06/13 11:09:37;;;;;;;1.98;0.80;;;24.10;50.60;;;;;;4936930;29;20066;-79
2022/06/13 11:12:17;;;;;;;1.40;0.77;;;24.10;50.70;;;;;;4952307;28;20024;-78
2022/06/13 11:23:46;;;;;;;1.15;0.65;;;24.20;50.60;;;;;;4952374;29;20043;-82
2022/06/13 11:28:58;;;;;;;1.45;0.70;;;24.20;50.60;;;;;;4953129;29;20361;-83
2022/06/13 11:31:26;;;;;;;0.98;0.60;;;24.20;50.60;;;;;;4937642;29;20034;-78
2022/06/13 11:34:15;;;;;;;1.00;0.68;;;24.20;50.60;;;;;;4936517;29;20043;-81
2022/06/13 11:37:00;;;;;;;1.42;0.85;;;24.20;50.60;;;;;;4936119;29;20043;-82
2022/06/13 11:39:36;;;;;;;0.70;0.68;;;24.20;50.60;;;;;;4921017;29;20031;-82
2022/06/13 11:42:39;;;;;;;1.80;0.95;;;24.30;50.70;;;;;;4936061;29;20031;-86
2022/06/13 11:45:26;;;;;;;0.90;0.63;;;24.30;50.80;;;;;;4937828;29;20036;-83
2022/06/13 11:48:04;;;;;;;1.13;0.70;;;24.30;50.70;;;;;;4936563;29;20027;-87
2022/06/13 11:50:46;;;;;;;0.80;0.60;;;24.30;50.60;;;;;;4920846;29;20162;-86
2022/06/13 11:55:59;;;;;;;;;;;24.30;50.60;;;;;;4937530;29;20039;-85
2022/06/13 12:03:41;;;;;;;;;;;;;;;;;;;;;
2022/06/13 12:06:11;;;;;;;0.93;0.80;;;24.30;50.70;;;;;;4932803;28;20500;-86
2022/06/13 12:12:08;;;;;;;1.75;0.70;;;24.30;50.80;;;;;;4947346;29;20039;-81
2022/06/13 12:14:58;;;;;;;0.98;0.65;;;24.30;50.40;;;;;;4937015;29;20050;-88
2022/06/13 12:17:39;;;;;;;0.98;0.75;;;24.30;49.90;;;;;;4936577;29;20039;-85
2022/06/13 12:57:09;;;;;;;0.80;0.63;;;24.30;50.10;;;;;;4955285;29;20116;-86
2022/06/13 13:27:15;;;;;;;0.52;0.52;;;24.20;49.60;;;;;;4955057;29;20042;-86
2022/06/13 13:35:06;;;;;;;;;;;;;;;;;;;;;
2022/06/13 13:38:37;;;;;;;0.98;0.70;;;24.30;49.70;;;;;;4935437;29;20540;-83
2022/06/13 13:41:16;;;;;;;1.05;0.60;;;24.30;49.80;;;;;;4925211;29;20202;-78
2022/06/13 13:44:14;;;;;;;1.55;0.70;;;24.30;49.70;;;;;;4939760;29;20107;-80
2022/06/13 13:47:12;;;;;;;1.02;0.80;;;24.30;49.70;;;;;;4901748;29;20039;-83
2022/06/13 13:49:44;;;;;;;2.38;0.80;;;24.30;49.70;;;;;;4904595;29;20035;-80
2022/06/13 13:52:19;;;;;;;1.95;0.88;;;24.40;49.60;;;;;;4923095;29;20086;-79
2022/06/13 13:54:54;;;;;;;;;;;24.30;49.40;;;;;;4939155;29;20472;-78
2022/06/13 13:57:29;;;;;;;1.83;1.00;;;24.40;49.40;;;;;;4939168;29;20005;-79
2022/06/13 14:00:00;;;;;;;0.88;0.57;;;24.40;49.40;;;;;;4939694;29;20094;-79
2022/06/13 14:02:35;;;;;;;0.93;0.70;;;24.40;49.30;;;;;;4940071;29;20102;-80
2022/06/13 14:05:07;;;;;;;1.20;0.70;;;24.40;49.30;;;;;;4941625;29;20043;-79
2022/06/13 14:07:52;;;;;;;1.17;0.80;;;24.40;49.20;;;;;;4945229;29;20062;-79
2022/06/13 14:10:20;;;;;;;0.68;0.60;;;24.40;49.20;;;;;;4949058;29;20019;-79
2022/06/13 14:13:00;;;;;;;0.63;0.63;;;24.40;49.10;;;;;;4950058;29;20016;-79
2022/06/13 14:15:40;;;;;;;1.58;0.63;;;24.50;49.10;;;;;;4946948;29;20035;-79
2022/06/13 14:18:28;;;;;;;1.92;0.70;;;24.50;49.10;;;;;;4939191;29;20034;-78
2022/06/13 14:20:55;;;;;;;0.90;0.70;;;24.50;49.10;;;;;;4893878;29;20051;-80
2022/06/13 14:23:30;;;;;;;1.17;0.70;;;24.60;49.00;;;;;;4922664;29;20063;-78
2022/06/13 14:25:57;;;;;;;0.90;0.70;;;24.60;49.00;;;;;;4939888;29;20087;-79
2022/06/13 14:28:23;;;;;;;1.42;0.98;;;24.60;48.90;;;;;;4921940;29;20468;-80
2022/06/13 14:31:03;;;;;;;2.00;0.90;;;24.60;48.80;;;;;;4939719;29;20115;-79
2022/06/13 14:36:53;;;;;;;0.57;0.50;;;24.70;48.70;;;;;;4938571;29;20031;-78
2022/06/13 14:39:54;;;;;;;1.08;0.60;;;24.70;48.70;;;;;;4946447;29;20048;-79
2022/06/13 14:42:50;;;;;;;0.95;0.75;;;24.80;48.70;;;;;;4906345;29;20127;-79
2022/06/13 14:45:22;;;;;;;1.52;0.80;;;24.80;48.60;;;;;;4941141;29;20039;-78
2022/06/13 14:48:11;;;;;;;2.78;0.90;;;24.80;48.40;;;;;;4955761;28;20361;-79
2022/06/13 14:50:55;;;;;;;1.05;0.73;;;24.80;48.50;;;;;;4956313;29;20035;-80
2022/06/13 14:53:36;;;;;;;1.80;0.90;;;24.80;48.40;;;;;;4955839;29;20035;-78
2022/06/13 14:56:08;;;;;;;1.05;0.70;;;24.80;48.30;;;;;;4957931;29;20039;-78
2022/06/13 14:59:02;;;;;;;0.98;0.63;;;24.80;48.10;;;;;;4944019;29;20083;-78
2022/06/13 15:01:35;;;;;;;1.67;0.80;;;24.90;48.20;;;;;;4950152;29;20039;-78
2022/06/13 15:04:25;;;;;;;0.95;0.70;;;24.90;48.10;;;;;;4949688;29;20054;-79
2022/06/13 15:07:10;;;;;;;1.13;0.80;;;24.90;48.20;;;;;;4964901;29;20023;-78
2022/06/13 15:10:57;;;;;;;;;;;;;;;;;;;;;
2022/06/13 15:14:31;;;;;;;0.70;0.70;;;25.00;48.30;;;;;;4921319;29;20507;-78
2022/06/13 15:17:06;;;;;;;;;;;25.00;48.20;;;;;;4943744;29;20023;-79
2022/06/13 15:19:42;;;;;;;0.80;0.70;;;25.00;48.20;;;;;;4956192;29;19911;-77
2022/06/13 15:22:20;;;;;;;0.85;0.60;;;25.00;47.90;;;;;;4956985;29;20119;-77
2022/06/13 15:24:55;;;;;;;2.03;0.98;;;25.00;47.90;;;;;;4939471;29;20027;-77
2022/06/13 15:27:20;;;;;;;;;;;25.00;47.80;;;;;;4940205;29;20495;-76